Monterville, West Virginia
Current Conditions -  °F | °C
As of 12:51 AM on Thursday 23 Oct 2014 (Local Time) from KEKN Reporting Station
Overcast Overcast  
Wind Chill: 40°   Ceiling: 1100
Heat Index: 44°   Visibility: 10mi
Dew Point: 41°   Wind: 8mph
Humidity: 89%   Direction: 350°N
Pressure: 30.14"   Gusts: NA
Location:  38.56°N, 80.11°W
Report Text: KEKN 230451Z AUTO 35007KT 10SM OVC011 07/05 A3014 RMK AO2 SLP218 T00670050 400780061 TSNO
Loading
Personal Weather Stations






























Interactive Weather Map
Tropical Storm Tracking
New forecast layout! Learn more

10-Day Weather Forecast

Advertisements
Track Severe Weather on mobile